createdAt,value
2019-01-20T00:03:48.829Z,9.10
2019-01-20T00:08:56.564Z,9.10
2019-01-20T00:14:17.406Z,8.67
2019-01-20T00:19:20.160Z,9.53
2019-01-20T00:24:41.388Z,10.73
2019-01-20T00:30:04.033Z,9.13
2019-01-20T00:35:25.091Z,8.97
2019-01-20T00:40:27.908Z,9.27
2019-01-20T00:45:31.631Z,8.93
2019-01-20T00:50:52.631Z,9.83
2019-01-20T00:56:06.620Z,8.50
2019-01-20T01:01:13.499Z,9.77
2019-01-20T01:06:19.381Z,10.30
2019-01-20T01:11:33.201Z,9.97
2019-01-20T01:16:39.352Z,9.37
2019-01-20T01:21:42.963Z,9.73
2019-01-20T01:27:04.047Z,9.53
2019-01-20T01:32:07.971Z,10.73
2019-01-20T01:37:11.797Z,9.23
2019-01-20T01:42:16.295Z,8.90
2019-01-20T01:47:19.817Z,8.70
2019-01-20T01:52:27.010Z,8.00
2019-01-20T01:57:48.206Z,9.23
2019-01-20T02:02:55.855Z,8.13
2019-01-20T02:08:17.115Z,8.57
2019-01-20T02:13:31.510Z,9.17
2019-01-20T02:18:34.373Z,8.90
2019-01-20T02:23:42.560Z,6.93
2019-01-20T02:28:46.794Z,7.17
2019-01-20T02:33:51.608Z,9.43
2019-01-20T02:38:54.398Z,9.00
2019-01-20T02:44:15.302Z,8.33
2019-01-20T02:49:18.172Z,6.13
2019-01-20T02:54:23.189Z,3.77
2019-01-20T02:59:29.451Z,1.43
2019-01-20T03:04:32.740Z,5.97
2019-01-20T03:09:38.983Z,3.50
2019-01-20T03:14:41.859Z,9.00
2019-01-20T03:19:45.720Z,9.13
2019-01-20T03:24:48.489Z,8.60
2019-01-20T03:29:51.618Z,8.90
2019-01-20T03:34:55.830Z,1.93
2019-01-20T03:40:06.352Z,2.10
2019-01-20T03:45:15.431Z,2.43
2019-01-20T03:50:18.633Z,2.10
2019-01-20T03:55:21.419Z,2.90
2019-01-20T04:00:25.697Z,4.00
2019-01-20T04:05:32.863Z,7.03
2019-01-20T04:10:40.499Z,5.17
2019-01-20T04:15:53.666Z,2.90
2019-01-20T04:20:56.453Z,2.47
2019-01-20T04:26:05.173Z,6.47
2019-01-20T04:31:26.083Z,2.10
2019-01-20T04:36:33.438Z,3.50
2019-01-20T04:41:55.021Z,5.00
2019-01-20T04:46:58.612Z,4.67
2019-01-20T04:52:03.835Z,3.43
2019-01-20T04:57:13.200Z,8.17
2019-01-20T05:02:34.334Z,5.20
2019-01-20T05:07:37.074Z,4.77
2019-01-20T05:12:41.105Z,3.10
2019-01-20T05:17:55.094Z,3.00
2019-01-20T05:22:58.326Z,5.73
2019-01-20T05:28:19.187Z,7.53
2019-01-20T05:33:21.800Z,8.77
2019-01-20T05:38:42.931Z,6.90
2019-01-20T05:43:50.557Z,3.60
2019-01-20T05:48:54.727Z,4.33
2019-01-20T05:54:02.471Z,2.67
2019-01-20T05:59:07.029Z,3.30
2019-01-20T06:04:15.272Z,4.97
2019-01-20T06:09:27.154Z,7.80
2019-01-20T06:14:34.327Z,7.27
2019-01-20T06:19:46.624Z,4.57
2019-01-20T06:24:59.003Z,5.00
2019-01-20T06:30:10.367Z,3.33
2019-01-20T06:35:13.484Z,5.30
2019-01-20T06:40:34.445Z,3.97
2019-01-20T06:45:41.233Z,2.70
2019-01-20T06:51:03.216Z,4.30
2019-01-20T06:56:06.756Z,4.53
2019-01-20T07:01:10.891Z,12.23
2019-01-20T07:06:15.477Z,5.93
2019-01-20T07:11:19.227Z,3.37
2019-01-20T07:16:22.192Z,5.93
2019-01-20T07:21:43.408Z,5.77
2019-01-20T07:26:55.649Z,7.27
2019-01-20T07:31:58.977Z,12.23
2019-01-20T07:37:08.387Z,6.47
2019-01-20T07:42:27.429Z,11.70
2019-01-20T07:47:51.798Z,13.73
2019-01-20T07:53:13.672Z,13.77
2019-01-20T07:58:16.891Z,3.17
2019-01-20T08:03:19.786Z,9.17
2019-01-20T08:08:23.911Z,5.23
2019-01-20T08:13:45.011Z,3.57
2019-01-20T08:18:57.770Z,3.47
2019-01-20T08:24:03.082Z,3.27
2019-01-20T08:29:06.953Z,9.63
2019-01-20T08:34:28.047Z,6.63
2019-01-20T08:39:31.096Z,10.00
2019-01-20T08:44:52.125Z,6.60
2019-01-20T08:49:54.832Z,6.10
2019-01-20T08:55:15.876Z,10.50
2019-01-20T09:00:18.703Z,8.23
2019-01-20T09:05:40.177Z,11.33
2019-01-20T09:10:44.249Z,10.77
2019-01-20T09:16:05.732Z,13.23
2019-01-20T09:21:08.471Z,10.87
2019-01-20T09:26:30.789Z,14.67
2019-01-20T09:31:37.753Z,13.77
2019-01-20T09:36:58.734Z,13.53
2019-01-20T09:42:06.853Z,14.00
2019-01-20T09:47:10.353Z,13.67
2019-01-20T09:52:16.499Z,13.60
2019-01-20T09:57:21.768Z,6.77
2019-01-20T10:02:24.990Z,12.70
2019-01-20T10:07:32.471Z,12.37
2019-01-20T10:12:36.787Z,16.43
2019-01-20T10:17:42.756Z,14.20
2019-01-20T10:23:45.007Z,16.13
2019-01-20T10:28:48.228Z,17.37
2019-01-20T10:34:11.369Z,11.83
2019-01-20T10:39:14.449Z,7.57
2019-01-20T10:44:36.028Z,15.43
2019-01-20T10:49:40.084Z,15.33
2019-01-20T10:55:02.748Z,16.70
2019-01-20T11:00:13.249Z,9.70
2019-01-20T11:05:34.758Z,12.53
2019-01-20T11:10:44.703Z,17.77
2019-01-20T11:16:07.242Z,12.07
2019-01-20T11:21:23.965Z,15.17
2019-01-20T11:26:46.358Z,16.30
2019-01-20T11:31:49.058Z,9.53
2019-01-20T11:37:09.966Z,12.33
2019-01-20T11:42:12.756Z,12.00
2019-01-20T11:47:41.793Z,9.20
2019-01-20T11:52:44.001Z,10.47
2019-01-20T11:58:07.430Z,8.30
2019-01-20T12:03:11.095Z,7.73
2019-01-20T12:08:35.555Z,10.13
2019-01-20T12:13:38.658Z,8.60
2019-01-20T12:18:59.713Z,14.87
2019-01-20T12:24:02.523Z,4.33
2019-01-20T12:29:25.568Z,5.13
2019-01-20T12:34:29.168Z,2.23
2019-01-20T12:39:36.255Z,7.43
2019-01-20T12:44:39.995Z,11.93
2019-01-20T12:49:43.587Z,4.53
2019-01-20T12:54:51.547Z,10.37
2019-01-20T13:00:16.909Z,8.57
2019-01-20T13:05:29.846Z,3.60
2019-01-20T13:10:50.967Z,11.67
2019-01-20T13:15:56.192Z,11.10
2019-01-20T13:21:20.344Z,11.43
2019-01-20T13:26:32.951Z,4.83
2019-01-20T13:31:39.132Z,8.30
2019-01-20T13:37:00.011Z,12.70
2019-01-20T13:42:03.197Z,11.87
2019-01-20T13:47:06.806Z,10.73
2019-01-20T13:52:19.083Z,12.73
2019-01-20T13:57:22.845Z,3.77
2019-01-20T14:02:28.933Z,15.63
2019-01-20T14:07:49.797Z,12.63
2019-01-20T14:13:02.515Z,14.10
2019-01-20T14:18:07.535Z,15.00
2019-01-20T14:23:14.572Z,4.63
2019-01-20T14:28:19.207Z,15.37
2019-01-20T14:33:29.310Z,14.13
2019-01-20T14:38:32.969Z,13.93
2019-01-20T14:43:36.730Z,14.20
2019-01-20T14:48:48.649Z,7.83
2019-01-20T14:53:54.877Z,14.80
2019-01-20T14:58:58.562Z,4.70
2019-01-20T15:04:04.761Z,10.30
2019-01-20T15:09:25.518Z,15.03
2019-01-20T15:14:30.195Z,10.53
2019-01-20T15:19:51.487Z,12.47
2019-01-20T15:25:13.967Z,15.03
2019-01-20T15:30:21.951Z,11.17
2019-01-20T15:35:34.883Z,12.20
2019-01-20T15:40:48.071Z,7.37
2019-01-20T15:45:51.421Z,8.50
2019-01-20T15:50:59.541Z,8.57
2019-01-20T15:56:25.788Z,15.77
2019-01-20T16:01:31.409Z,13.30
2019-01-20T16:06:36.429Z,8.33
2019-01-20T16:11:58.601Z,10.77
2019-01-20T16:17:19.667Z,10.70
2019-01-20T16:22:22.740Z,11.87
2019-01-20T16:33:32.692Z,13.03
2019-01-20T16:38:53.952Z,12.80
2019-01-20T16:44:15.421Z,13.73
2019-01-20T16:49:27.340Z,13.70
2019-01-20T16:54:30.372Z,15.40
2019-01-20T16:59:51.610Z,16.17
2019-01-20T17:04:57.220Z,17.33
2019-01-20T17:16:36.502Z,16.13
2019-01-20T17:21:57.568Z,16.33
2019-01-20T17:27:04.678Z,22.43
2019-01-20T17:32:26.232Z,15.47
2019-01-20T17:37:29.827Z,17.20
2019-01-20T17:42:35.100Z,16.27
2019-01-20T17:47:41.568Z,15.80
2019-01-20T17:53:03.919Z,16.97
2019-01-20T17:58:12.290Z,15.80
2019-01-20T18:03:18.206Z,13.50
2019-01-20T18:08:30.602Z,15.47
2019-01-20T18:13:35.292Z,14.67
2019-01-20T18:18:48.477Z,11.50
2019-01-20T18:24:09.984Z,13.93
2019-01-20T18:29:31.296Z,12.37
2019-01-20T18:34:37.289Z,13.23
2019-01-20T18:39:42.592Z,14.03
2019-01-20T18:45:04.811Z,16.63
2019-01-20T18:50:28.097Z,14.00
2019-01-20T18:55:50.483Z,15.13
2019-01-20T19:01:02.038Z,11.67
2019-01-20T19:06:05.532Z,11.73
2019-01-20T19:11:10.049Z,13.57
2019-01-20T19:16:28.357Z,13.23
2019-01-20T19:21:43.570Z,12.77
2019-01-20T19:26:57.278Z,14.33
2019-01-20T19:32:03.806Z,12.57
2019-01-20T19:37:09.379Z,11.10
2019-01-20T19:42:17.714Z,13.03
2019-01-20T19:47:26.163Z,15.43
2019-01-20T19:52:49.078Z,14.67
2019-01-20T19:57:56.605Z,13.07
2019-01-20T20:03:02.705Z,9.87
2019-01-20T20:08:12.706Z,10.10
2019-01-20T20:13:25.652Z,12.10
2019-01-20T20:18:29.978Z,12.40
2019-01-20T20:23:36.812Z,10.17
2019-01-20T20:28:44.008Z,12.50
2019-01-20T20:33:50.884Z,15.97
2019-01-20T20:38:55.152Z,12.17
2019-01-20T20:44:18.608Z,13.90
2019-01-20T20:49:34.148Z,15.67
2019-01-20T20:54:41.219Z,13.93
2019-01-20T20:59:51.000Z,14.13
2019-01-20T21:04:59.795Z,14.40
2019-01-20T21:10:21.633Z,14.80
2019-01-20T21:15:24.928Z,12.40
2019-01-20T21:20:45.729Z,14.77
2019-01-20T21:25:48.850Z,13.53
2019-01-20T21:30:57.144Z,14.97
2019-01-20T21:36:10.250Z,17.33
2019-01-20T21:41:14.732Z,15.57
2019-01-20T21:46:23.915Z,18.40
2019-01-20T21:51:35.952Z,22.43
2019-01-20T21:56:39.640Z,21.23
2019-01-20T22:02:00.846Z,20.40
2019-01-20T22:07:03.630Z,24.30
2019-01-20T22:12:24.622Z,19.50
2019-01-20T22:17:28.111Z,18.93
2019-01-20T22:22:32.345Z,18.47
2019-01-20T22:27:53.548Z,16.90
2019-01-20T22:32:58.443Z,23.77
2019-01-20T22:38:11.781Z,22.90
2019-01-20T22:43:19.509Z,22.87
2019-01-20T22:48:31.775Z,25.33
2019-01-20T22:53:35.408Z,28.63
2019-01-20T22:58:43.064Z,24.10
2019-01-20T23:04:04.316Z,27.07
2019-01-20T23:09:11.932Z,27.23
2019-01-20T23:14:15.553Z,25.83
2019-01-20T23:19:19.555Z,26.10
2019-01-20T23:24:31.921Z,25.27
2019-01-20T23:29:45.277Z,24.27
2019-01-20T23:34:49.024Z,24.33
2019-01-20T23:40:10.108Z,25.63
2019-01-20T23:45:14.111Z,25.30
2019-01-20T23:50:35.437Z,24.43
2019-01-20T23:55:47.930Z,23.63
